createdAt,value
2022-09-20T00:01:32.679Z,24.51
2022-09-20T00:04:02.453Z,24.57
2022-09-20T00:06:31.721Z,24.20
2022-09-20T00:08:59.843Z,24.51
2022-09-20T00:11:29.721Z,24.51
2022-09-20T00:13:58.972Z,24.48
2022-09-20T00:16:35.176Z,24.17
2022-09-20T00:19:04.289Z,24.31
2022-09-20T00:21:33.007Z,24.26
2022-09-20T00:24:00.484Z,24.38
2022-09-20T00:26:28.328Z,24.32
2022-09-20T00:28:56.113Z,24.33
2022-09-20T00:31:23.067Z,24.31
2022-09-20T00:34:08.299Z,24.32
2022-09-20T00:36:35.155Z,24.34
2022-09-20T00:39:03.556Z,24.41
2022-09-20T00:41:31.869Z,24.43
2022-09-20T00:43:59.394Z,24.35
2022-09-20T00:46:43.653Z,24.29
2022-09-20T00:49:16.498Z,24.41
2022-09-20T00:51:47.261Z,24.22
2022-09-20T00:54:20.304Z,24.32
2022-09-20T00:56:48.481Z,24.29
2022-09-20T00:59:19.976Z,24.20
2022-09-20T01:01:52.558Z,24.20
2022-09-20T01:04:23.131Z,24.29
2022-09-20T01:06:51.841Z,24.40
2022-09-20T01:09:18.566Z,24.10
2022-09-20T01:11:46.701Z,24.29
2022-09-20T01:14:15.533Z,24.36
2022-09-20T01:16:42.563Z,24.27
2022-09-20T01:19:27.456Z,24.19
2022-09-20T01:21:54.921Z,24.33
2022-09-20T01:24:38.981Z,24.28
2022-09-20T01:27:34.019Z,24.37
2022-09-20T01:30:00.809Z,24.35
2022-09-20T01:32:52.397Z,24.08
2022-09-20T01:35:21.540Z,24.33
2022-09-20T01:38:23.229Z,24.28
2022-09-20T01:40:51.004Z,24.30
2022-09-20T01:43:29.765Z,24.27
2022-09-20T01:46:02.685Z,24.12
2022-09-20T01:48:32.463Z,24.16
2022-09-20T01:51:18.068Z,23.96
2022-09-20T01:54:23.766Z,23.97
2022-09-20T01:57:27.312Z,23.89
2022-09-20T01:59:57.098Z,23.82
2022-09-20T02:02:48.896Z,23.61
2022-09-20T02:05:48.171Z,23.44
2022-09-20T02:08:30.333Z,23.30
2022-09-20T02:11:13.235Z,23.24
2022-09-20T02:13:40.152Z,23.28
2022-09-20T02:16:25.125Z,23.29
2022-09-20T02:19:16.577Z,23.38
2022-09-20T02:22:21.749Z,23.49
2022-09-20T02:25:02.112Z,23.68
2022-09-20T02:27:34.468Z,23.74
2022-09-20T02:30:07.338Z,23.77
2022-09-20T02:32:51.984Z,23.80
2022-09-20T02:35:30.745Z,23.82
2022-09-20T02:38:11.689Z,23.68
2022-09-20T02:40:56.950Z,23.78
2022-09-20T02:43:48.577Z,23.65
2022-09-20T02:46:38.360Z,23.65
2022-09-20T02:49:11.390Z,23.64
2022-09-20T02:51:46.945Z,23.44
2022-09-20T02:54:19.749Z,23.54
2022-09-20T02:57:03.069Z,23.35
2022-09-20T02:59:40.772Z,23.50
2022-09-20T03:02:12.718Z,23.55
2022-09-20T03:05:11.380Z,23.33
2022-09-20T03:07:47.233Z,23.30
2022-09-20T03:10:33.989Z,23.06
2022-09-20T03:13:19.285Z,22.97
2022-09-20T03:15:48.938Z,22.88
2022-09-20T03:18:38.359Z,22.76
2022-09-20T03:21:26.911Z,22.89
2022-09-20T03:24:21.400Z,23.08
2022-09-20T03:26:57.162Z,23.16
2022-09-20T03:29:51.631Z,23.17
2022-09-20T03:32:49.103Z,23.11
2022-09-20T03:35:45.259Z,23.12
2022-09-20T03:38:47.453Z,23.12
2022-09-20T03:41:26.297Z,23.17
2022-09-20T03:43:52.942Z,23.20
2022-09-20T03:46:22.973Z,23.16
2022-09-20T03:49:17.734Z,23.11
2022-09-20T03:52:14.557Z,23.12
2022-09-20T03:55:02.715Z,23.15
2022-09-20T03:57:39.631Z,23.14
2022-09-20T04:00:12.315Z,23.31
2022-09-20T04:02:51.302Z,23.34
2022-09-20T04:05:27.248Z,23.23
2022-09-20T04:07:59.869Z,23.16
2022-09-20T04:11:08.437Z,23.06
2022-09-20T04:13:37.125Z,23.10
2022-09-20T04:16:41.219Z,23.07
2022-09-20T04:19:32.152Z,23.04
2022-09-20T04:22:01.065Z,23.15
2022-09-20T04:24:30.918Z,23.17
2022-09-20T04:27:21.083Z,23.17
2022-09-20T04:29:58.237Z,22.95
2022-09-20T04:32:48.435Z,23.14
2022-09-20T04:35:42.266Z,23.25
2022-09-20T04:38:15.061Z,23.13
2022-09-20T04:41:07.940Z,23.24
2022-09-20T04:43:51.394Z,23.29
2022-09-20T04:46:57.910Z,23.00
2022-09-20T04:49:39.820Z,22.99
2022-09-20T04:52:24.770Z,22.97
2022-09-20T04:55:25.178Z,22.91
2022-09-20T04:58:33.265Z,22.89
2022-09-20T05:01:16.945Z,22.77
2022-09-20T05:04:02.011Z,22.62
2022-09-20T05:06:47.130Z,22.41
2022-09-20T05:09:32.557Z,22.39
2022-09-20T05:12:36.277Z,22.26
2022-09-20T05:15:10.397Z,22.22
2022-09-20T05:18:05.080Z,22.20
2022-09-20T05:20:59.910Z,22.14
2022-09-20T05:24:06.711Z,22.13
2022-09-20T05:26:38.967Z,22.14
2022-09-20T05:29:10.325Z,22.15
2022-09-20T05:32:14.529Z,22.13
2022-09-20T05:35:02.496Z,22.09
2022-09-20T05:37:37.648Z,22.13
2022-09-20T05:40:22.089Z,22.11
2022-09-20T05:43:12.160Z,22.10
2022-09-20T05:45:53.368Z,22.07
2022-09-20T05:48:22.929Z,22.14
2022-09-20T05:51:14.317Z,22.27
2022-09-20T05:53:50.012Z,22.38
2022-09-20T05:56:35.192Z,22.24
2022-09-20T05:59:14.296Z,22.29
2022-09-20T06:02:03.880Z,22.03
2022-09-20T06:04:40.379Z,22.08
2022-09-20T06:07:19.503Z,22.09
2022-09-20T06:10:15.465Z,22.08
2022-09-20T06:13:09.058Z,22.29
2022-09-20T06:15:47.093Z,22.30
2022-09-20T06:18:17.879Z,22.34
2022-09-20T06:21:00.292Z,22.29
2022-09-20T06:23:27.537Z,22.16
2022-09-20T06:26:02.511Z,22.23
2022-09-20T06:28:42.207Z,22.41
2022-09-20T06:31:10.702Z,22.44
2022-09-20T06:33:50.563Z,22.45
2022-09-20T06:36:38.053Z,22.41
2022-09-20T06:39:43.808Z,22.52
2022-09-20T06:42:11.053Z,22.63
2022-09-20T06:44:43.125Z,22.68
2022-09-20T06:47:15.552Z,22.72
2022-09-20T06:49:46.925Z,22.64
2022-09-20T06:52:15.977Z,22.86
2022-09-20T06:54:47.207Z,22.90
2022-09-20T06:57:40.420Z,22.96
2022-09-20T07:00:10.970Z,22.99
2022-09-20T07:02:37.722Z,23.08
2022-09-20T07:05:07.846Z,23.12
2022-09-20T07:07:34.553Z,23.07
2022-09-20T07:10:01.381Z,23.30
2022-09-20T07:12:29.548Z,23.18
2022-09-20T07:14:56.230Z,23.53
2022-09-20T07:17:23.168Z,23.62
2022-09-20T07:19:50.111Z,23.73
2022-09-20T07:22:17.208Z,23.74
2022-09-20T07:24:45.030Z,23.91
2022-09-20T07:27:12.723Z,24.08
2022-09-20T07:29:41.187Z,24.21
2022-09-20T07:32:08.587Z,24.38
2022-09-20T07:34:35.389Z,24.61
2022-09-20T07:37:02.265Z,24.67
2022-09-20T07:39:29.524Z,24.87
2022-09-20T07:41:56.865Z,25.08
2022-09-20T07:44:28.011Z,25.35
2022-09-20T07:47:01.343Z,25.50
2022-09-20T07:49:32.639Z,25.66
2022-09-20T07:51:59.736Z,25.69
2022-09-20T07:54:28.136Z,25.92
2022-09-20T07:56:54.885Z,26.16
2022-09-20T07:59:21.854Z,26.31
2022-09-20T08:01:48.899Z,26.50
2022-09-20T08:04:15.749Z,26.61
2022-09-20T08:06:44.763Z,26.83
2022-09-20T08:09:12.921Z,27.25
2022-09-20T08:11:41.848Z,27.30
2022-09-20T08:14:13.464Z,27.54
2022-09-20T08:16:43.211Z,28.03
2022-09-20T08:19:18.589Z,28.35
2022-09-20T08:21:45.432Z,28.78
2022-09-20T08:24:12.392Z,28.96
2022-09-20T08:26:39.519Z,29.40
2022-09-20T08:29:06.918Z,29.96
2022-09-20T08:31:37.071Z,30.39
2022-09-20T08:34:07.046Z,30.76
2022-09-20T08:36:37.051Z,30.90
2022-09-20T08:42:18.650Z,31.49
2022-09-20T08:45:00.485Z,31.97
2022-09-20T08:47:35.717Z,32.27
2022-09-20T08:50:11.487Z,32.51
2022-09-20T08:52:40.845Z,33.14
2022-09-20T08:55:28.094Z,33.34
2022-09-20T08:57:57.668Z,33.58
2022-09-20T09:00:30.627Z,33.82
2022-09-20T09:03:01.526Z,34.00
2022-09-20T09:05:43.375Z,33.65
2022-09-20T09:08:16.859Z,33.55
2022-09-20T09:10:55.220Z,33.65
2022-09-20T09:13:32.175Z,34.04
2022-09-20T09:16:23.069Z,34.30
2022-09-20T09:18:53.397Z,34.38
2022-09-20T09:21:27.952Z,34.42
2022-09-20T09:24:20.793Z,34.22
2022-09-20T09:26:47.495Z,34.28
2022-09-20T09:29:23.497Z,34.54
2022-09-20T09:31:52.627Z,34.70
2022-09-20T09:34:39.332Z,35.05
2022-09-20T09:37:06.047Z,35.33
2022-09-20T09:39:38.545Z,35.56
2022-09-20T09:42:26.019Z,35.78
2022-09-20T09:44:52.737Z,35.91
2022-09-20T09:47:27.904Z,36.02
2022-09-20T09:50:06.097Z,36.22
2022-09-20T09:52:36.634Z,36.23
2022-09-20T09:55:05.867Z,36.42
2022-09-20T09:57:54.528Z,36.49
2022-09-20T10:00:23.734Z,36.51
2022-09-20T10:03:09.364Z,36.78
2022-09-20T10:06:10.293Z,36.89
2022-09-20T10:08:37.721Z,37.00
2022-09-20T10:11:42.860Z,37.02
2022-09-20T10:14:23.275Z,37.04
2022-09-20T10:16:55.909Z,37.13
2022-09-20T10:19:49.295Z,37.07
2022-09-20T10:22:31.288Z,37.13
2022-09-20T10:25:19.875Z,37.27
2022-09-20T10:28:14.556Z,37.46
2022-09-20T10:30:57.271Z,37.70
2022-09-20T10:33:53.208Z,37.80
2022-09-20T10:36:54.510Z,37.87
2022-09-20T10:39:27.218Z,38.02
2022-09-20T10:42:38.243Z,37.98
2022-09-20T10:46:03.697Z,37.88
2022-09-20T10:48:42.864Z,37.91
2022-09-20T10:51:35.483Z,38.04
2022-09-20T10:54:17.628Z,37.89
2022-09-20T10:56:50.668Z,38.01
2022-09-20T10:59:36.326Z,38.06
2022-09-20T11:02:28.335Z,37.94
2022-09-20T11:05:00.881Z,38.05
2022-09-20T11:07:33.744Z,38.12
2022-09-20T11:10:13.649Z,38.14
2022-09-20T11:13:11.704Z,38.06
2022-09-20T11:16:02.687Z,38.23
2022-09-20T11:18:33.616Z,38.32
2022-09-20T11:21:11.380Z,38.47
2022-09-20T11:23:44.327Z,38.38
2022-09-20T11:26:17.949Z,38.37
2022-09-20T11:28:51.635Z,38.61
2022-09-20T11:31:35.909Z,38.81
2022-09-20T11:34:21.314Z,39.16
2022-09-20T11:36:54.768Z,39.36
2022-09-20T11:39:21.392Z,39.46
2022-09-20T11:41:51.154Z,39.63
2022-09-20T11:44:20.207Z,40.03
2022-09-20T11:46:52.839Z,40.52
2022-09-20T11:49:46.208Z,40.74
2022-09-20T11:53:06.622Z,41.39
2022-09-20T11:55:37.214Z,42.00
2022-09-20T11:58:10.309Z,42.28
2022-09-20T12:00:41.814Z,42.54
2022-09-20T12:03:33.047Z,42.88
2022-09-20T12:06:26.571Z,43.27
2022-09-20T12:08:54.028Z,43.40
2022-09-20T12:11:36.351Z,43.76
2022-09-20T12:14:17.749Z,44.07
2022-09-20T12:16:47.550Z,44.46
2022-09-20T12:19:33.065Z,44.91
2022-09-20T12:21:59.798Z,44.99
2022-09-20T12:24:45.353Z,45.01
2022-09-20T12:27:27.827Z,45.18
2022-09-20T12:30:05.430Z,44.88
2022-09-20T12:32:35.203Z,44.68
2022-09-20T12:35:02.225Z,44.66
2022-09-20T12:37:29.671Z,44.99
2022-09-20T12:39:56.724Z,45.23
2022-09-20T12:42:30.548Z,45.31
2022-09-20T12:45:07.534Z,45.43
2022-09-20T12:47:37.823Z,45.51
2022-09-20T12:50:34.155Z,45.81
2022-09-20T12:53:12.306Z,45.79
2022-09-20T12:55:55.374Z,45.65
2022-09-20T12:58:24.374Z,45.99
2022-09-20T13:01:14.357Z,46.14
2022-09-20T13:03:42.744Z,46.10
2022-09-20T13:06:16.742Z,46.20
2022-09-20T13:08:48.350Z,45.63
2022-09-20T13:11:41.570Z,43.13
2022-09-20T13:14:08.381Z,40.91
2022-09-20T13:16:38.000Z,39.41
2022-09-20T13:19:33.739Z,38.09
2022-09-20T13:22:00.399Z,37.26
2022-09-20T13:24:32.501Z,36.52
2022-09-20T13:27:07.693Z,35.79
2022-09-20T13:29:37.704Z,35.07
2022-09-20T13:32:24.268Z,34.64
2022-09-20T13:35:12.291Z,34.16
2022-09-20T13:37:45.391Z,33.85
2022-09-20T13:40:21.442Z,33.48
2022-09-20T13:42:50.319Z,33.20
2022-09-20T13:45:19.672Z,32.85
2022-09-20T13:47:51.968Z,32.69
2022-09-20T13:50:21.696Z,32.48
2022-09-20T13:52:53.560Z,32.09
2022-09-20T13:55:32.348Z,31.91
2022-09-20T13:58:09.124Z,31.82
2022-09-20T14:00:38.430Z,31.76
2022-09-20T14:03:05.420Z,31.71
2022-09-20T14:05:32.515Z,31.61
2022-09-20T14:08:01.372Z,31.57
2022-09-20T14:10:38.729Z,31.32
2022-09-20T14:13:08.638Z,31.23
2022-09-20T14:15:43.926Z,31.20
2022-09-20T14:18:22.300Z,30.94
2022-09-20T14:20:53.073Z,30.93
2022-09-20T14:23:27.848Z,30.87
2022-09-20T14:26:08.395Z,30.82
2022-09-20T14:28:35.087Z,30.75
2022-09-20T14:31:08.822Z,30.67
2022-09-20T14:33:44.295Z,30.52
2022-09-20T14:36:16.357Z,30.50
2022-09-20T14:38:45.675Z,30.49
2022-09-20T14:41:13.600Z,30.36
2022-09-20T14:43:42.439Z,30.29
2022-09-20T14:46:18.391Z,29.94
2022-09-20T14:48:45.752Z,30.17
2022-09-20T14:51:18.930Z,30.18
2022-09-20T14:53:48.632Z,30.07
2022-09-20T14:56:16.863Z,29.99
2022-09-20T14:59:07.827Z,29.91
2022-09-20T15:01:37.968Z,29.85
2022-09-20T15:04:25.605Z,29.84
2022-09-20T15:06:53.222Z,29.73
2022-09-20T15:09:21.959Z,29.86
2022-09-20T15:12:13.807Z,29.74
2022-09-20T15:14:41.545Z,29.69
2022-09-20T15:17:15.547Z,29.57
2022-09-20T15:19:42.300Z,29.72
2022-09-20T15:22:12.294Z,29.77
2022-09-20T15:24:39.356Z,29.73
2022-09-20T15:27:06.522Z,29.70
2022-09-20T15:29:33.703Z,29.84
2022-09-20T15:32:00.527Z,29.67
2022-09-20T15:34:27.233Z,29.69
2022-09-20T15:36:54.882Z,29.61
2022-09-20T15:39:22.562Z,29.59
2022-09-20T15:41:52.731Z,29.58
2022-09-20T15:44:19.968Z,29.42
2022-09-20T15:46:48.533Z,29.42
2022-09-20T15:49:15.235Z,29.59
2022-09-20T15:51:41.938Z,29.23
2022-09-20T15:54:13.814Z,29.39
2022-09-20T15:56:41.359Z,29.44
2022-09-20T15:59:10.947Z,29.23
2022-09-20T16:01:40.033Z,29.29
2022-09-20T16:04:14.884Z,29.23
2022-09-20T16:06:43.967Z,29.19
2022-09-20T16:09:10.953Z,29.07
2022-09-20T16:11:38.855Z,28.93
2022-09-20T16:14:06.773Z,29.05
2022-09-20T16:16:40.434Z,29.04
2022-09-20T16:19:20.879Z,28.91
2022-09-20T16:21:58.320Z,28.98
2022-09-20T16:24:28.186Z,28.96
2022-09-20T16:26:55.065Z,28.92
2022-09-20T16:29:26.152Z,28.95
2022-09-20T16:31:54.612Z,28.90
2022-09-20T16:34:29.781Z,28.96
2022-09-20T16:37:17.244Z,28.95
2022-09-20T16:39:44.552Z,28.99
2022-09-20T16:42:13.222Z,28.95
2022-09-20T16:44:44.944Z,28.94
2022-09-20T16:47:18.290Z,28.97
2022-09-20T16:49:47.426Z,28.87
2022-09-20T16:52:14.658Z,28.92
2022-09-20T16:54:41.393Z,28.81
2022-09-20T16:57:08.322Z,28.82
2022-09-20T16:59:35.331Z,28.83
2022-09-20T17:02:02.235Z,28.95
2022-09-20T17:04:29.109Z,28.90
2022-09-20T17:06:55.914Z,28.96
2022-09-20T17:09:22.713Z,28.79
2022-09-20T17:11:50.491Z,28.93
2022-09-20T17:14:19.756Z,28.92
2022-09-20T17:16:48.172Z,28.88
2022-09-20T17:19:18.638Z,28.77
2022-09-20T17:21:51.490Z,28.81
2022-09-20T17:24:20.567Z,28.83
2022-09-20T17:26:49.057Z,28.76
2022-09-20T17:29:17.602Z,28.64
2022-09-20T17:31:55.139Z,28.78
2022-09-20T17:34:24.016Z,28.70
2022-09-20T17:36:51.045Z,28.57
2022-09-20T17:39:18.734Z,28.59
2022-09-20T17:41:48.336Z,28.57
2022-09-20T17:44:16.145Z,28.46
2022-09-20T17:46:45.485Z,28.53
2022-09-20T17:49:13.552Z,28.37
2022-09-20T17:51:52.396Z,28.27
2022-09-20T17:54:20.308Z,28.27
2022-09-20T17:56:50.438Z,28.15
2022-09-20T17:59:19.169Z,28.06
2022-09-20T18:01:48.741Z,27.88
2022-09-20T18:04:16.127Z,27.86
2022-09-20T18:06:48.130Z,27.79
2022-09-20T18:09:17.032Z,27.84
2022-09-20T18:11:49.838Z,27.65
2022-09-20T18:14:18.544Z,27.71
2022-09-20T18:16:45.624Z,27.60
2022-09-20T18:19:14.330Z,27.58
2022-09-20T18:21:41.204Z,27.45
2022-09-20T18:24:10.016Z,27.52
2022-09-20T18:26:38.086Z,27.41
2022-09-20T18:29:08.144Z,27.39
2022-09-20T18:31:42.312Z,27.32
2022-09-20T18:34:20.350Z,27.06
2022-09-20T18:36:52.789Z,27.15
2022-09-20T18:39:27.472Z,26.96
2022-09-20T18:41:55.447Z,26.95
2022-09-20T18:44:23.378Z,26.88
2022-09-20T18:46:53.151Z,26.79
2022-09-20T18:49:21.832Z,26.70
2022-09-20T18:51:49.796Z,26.62
2022-09-20T18:54:16.629Z,26.51
2022-09-20T18:56:49.072Z,26.15
2022-09-20T18:59:27.488Z,26.35
2022-09-20T19:02:02.440Z,26.16
2022-09-20T19:05:01.061Z,26.03
2022-09-20T19:07:28.095Z,26.16
2022-09-20T19:10:16.001Z,26.07
2022-09-20T19:12:56.802Z,25.87
2022-09-20T19:15:42.036Z,25.94
2022-09-20T19:18:24.518Z,25.87
2022-09-20T19:21:18.672Z,25.84
2022-09-20T19:24:03.349Z,25.83
2022-09-20T19:26:32.511Z,25.79
2022-09-20T19:29:00.395Z,25.77
2022-09-20T19:31:30.185Z,25.86
2022-09-20T19:33:59.709Z,25.85
2022-09-20T19:36:38.993Z,25.62
2022-09-20T19:39:18.694Z,25.70
2022-09-20T19:42:00.440Z,25.63
2022-09-20T19:45:14.330Z,25.52
2022-09-20T19:47:47.499Z,25.50
2022-09-20T19:50:27.274Z,25.44
2022-09-20T19:52:56.360Z,25.19
2022-09-20T19:55:23.456Z,25.29
2022-09-20T19:57:51.131Z,25.06
2022-09-20T20:00:20.677Z,25.17
2022-09-20T20:02:47.837Z,25.00
2022-09-20T20:05:17.704Z,25.04
2022-09-20T20:08:09.037Z,25.00
2022-09-20T20:10:54.231Z,24.89
2022-09-20T20:13:59.409Z,24.59
2022-09-20T20:16:55.351Z,24.51
2022-09-20T20:19:22.141Z,24.59
2022-09-20T20:22:19.398Z,24.57
2022-09-20T20:24:53.868Z,24.51
2022-09-20T20:27:21.141Z,24.53
2022-09-20T20:29:48.164Z,24.38
2022-09-20T20:32:15.480Z,24.51
2022-09-20T20:34:42.469Z,24.53
2022-09-20T20:37:09.399Z,24.56
2022-09-20T20:39:36.276Z,24.47
2022-09-20T20:42:08.510Z,24.48
2022-09-20T20:44:35.318Z,24.49
2022-09-20T20:47:06.844Z,24.48
2022-09-20T20:49:33.897Z,24.58
2022-09-20T20:52:04.834Z,24.57
2022-09-20T20:54:32.803Z,24.53
2022-09-20T20:56:59.893Z,23.86
2022-09-20T20:59:26.932Z,23.70
2022-09-20T21:01:54.010Z,24.19
2022-09-20T21:04:21.862Z,23.79
2022-09-20T21:06:50.300Z,24.54
2022-09-20T21:09:19.723Z,24.12
2022-09-20T21:11:48.619Z,24.55
2022-09-20T21:14:32.063Z,22.79
2022-09-20T21:17:05.197Z,22.83
2022-09-20T21:19:32.152Z,24.31
2022-09-20T21:21:59.227Z,24.16
2022-09-20T21:24:26.097Z,24.39
2022-09-20T21:26:53.815Z,24.55
2022-09-20T21:29:21.001Z,24.42
2022-09-20T21:31:47.956Z,24.33
2022-09-20T21:34:16.274Z,23.08
2022-09-20T21:36:44.866Z,24.44
2022-09-20T21:39:12.307Z,24.64
2022-09-20T21:41:40.306Z,24.34
2022-09-20T21:44:10.818Z,24.39
2022-09-20T21:46:42.825Z,24.25
2022-09-20T21:49:11.482Z,24.36
2022-09-20T21:51:40.360Z,24.07
2022-09-20T21:54:07.511Z,24.48
2022-09-20T21:56:39.042Z,24.59
2022-09-20T21:59:06.444Z,24.61
2022-09-20T22:01:39.049Z,24.41
2022-09-20T22:04:08.245Z,24.35
2022-09-20T22:06:37.573Z,24.56
2022-09-20T22:09:08.113Z,24.42
2022-09-20T22:11:43.346Z,24.40
2022-09-20T22:14:12.474Z,24.31
2022-09-20T22:16:47.017Z,24.03
2022-09-20T22:19:17.541Z,24.46
2022-09-20T22:21:46.977Z,24.20
2022-09-20T22:24:15.285Z,23.82
2022-09-20T22:26:44.769Z,23.44
2022-09-20T22:29:12.091Z,24.30
2022-09-20T22:31:47.722Z,23.86
2022-09-20T22:34:22.580Z,24.19
2022-09-20T22:36:49.760Z,23.66
2022-09-20T22:39:17.209Z,24.22
2022-09-20T22:41:45.045Z,24.19
2022-09-20T22:44:12.067Z,24.10
2022-09-20T22:46:39.462Z,24.26
2022-09-20T22:49:07.397Z,23.78
2022-09-20T22:51:34.807Z,23.96
2022-09-20T22:54:06.484Z,23.77
2022-09-20T22:56:34.584Z,24.06
2022-09-20T22:59:11.985Z,24.21
2022-09-20T23:01:48.099Z,24.17
2022-09-20T23:04:17.702Z,24.04
2022-09-20T23:06:52.065Z,24.01
2022-09-20T23:09:19.089Z,24.08
2022-09-20T23:11:46.894Z,23.87
2022-09-20T23:14:17.369Z,24.11
2022-09-20T23:16:44.728Z,23.99
2022-09-20T23:19:12.728Z,23.79
2022-09-20T23:21:40.983Z,24.09
2022-09-20T23:24:11.115Z,23.99
2022-09-20T23:26:39.815Z,24.09
2022-09-20T23:29:09.325Z,24.10
2022-09-20T23:31:37.801Z,23.85
2022-09-20T23:34:06.765Z,23.64
2022-09-20T23:36:36.516Z,23.82
2022-09-20T23:39:03.187Z,23.84
2022-09-20T23:41:30.334Z,23.61
2022-09-20T23:43:57.308Z,23.50
2022-09-20T23:46:26.200Z,23.78
2022-09-20T23:48:53.548Z,23.81
2022-09-20T23:51:23.608Z,23.79
2022-09-20T23:53:52.020Z,23.57
2022-09-20T23:56:20.117Z,23.48
2022-09-20T23:58:47.430Z,23.76
